Hlavní strana
METAR-TAF:

METAR-TAF

Letiště :

Bergen, Norsko

zeměpisná šířka: 60-17N, zeměpisná délka: 005-14E, výška: 5 m

Aktuální stav počasí

Zpráva byla vytvořena před 20 minutami, v 12:20 UTC
Jižní vítr 10 kt
Teplota 6°C
Vlhkost vzduchu 93%
Tlak 1033 hPa
Viditelnost: 2000 m
slabé mrholení, kouřmo

METAR: ENBR 011220Z 18010KT 2000 -DZ BR VV003 06/05 Q1033 TEMPO 1200 -DZ BR RMK WIND 1200FT 22015KT

Čas: 13:40 (12:40 UTC)

Předpověď počasí

Předpověď platná od 01 v 12 UTC do 02 v 12 UTC
Jihozápadní vítr 8 kt
Viditelnost: 4000 m
Polojasno ve výšce 200 ft
Oblačno až skoro zataženo ve výšce 500 ft
slabé mrholení, kouřmo
Dočasný
od 01 v 12 UTC do 02 v 12 UTC
Viditelnost: 1200 m
Oblačno až skoro zataženo ve výšce 200 ft
mrholení, kouřmo
Pravděpodobnost 30%
od 01 v 14 UTC do 01 v 21 UTC
Viditelnost: 7000 m
Polojasno ve výšce 500 ft
Oblačno až skoro zataženo ve výšce 2000 ft

TAF: ENBR 0112/0212 22008KT 4000 -DZ BR SCT002 BKN005 TEMPO 0112/0212 1200 DZ BR BKN002 PROB30 0114/0121 7000 SCT005 BKN020

Stav a předpovědi počasí z více než 4 000 letišť (zprávy METAR a TAF).

Červené a žluté tečky na mapě představují dostupné meteorologické stanice.

Když kurzor umístíte na tečku, zobrazí se název stanice.

Pak kliknutím zobrazíte stav a předpověď počasí.

Chcete-li změnit mapu, kliknutím na zelené tlačítko se znaménkem +mapu přiblížíte, kliknutím na zelené tlačítko se znaménkem – mapu oddálíte a kliknutím na zelené šipky přejdete na sousední mapy.


METAR-TAF: